sensor_id;sensor_type;location;lat;lon;timestamp;pressure;altitude;pressure_sealevel;temperature;humidity
23241;BME280;11789;53.482;9.862;2024-03-08T00:01:39;102516.47;;;1.32;100.00
23241;BME280;11789;53.482;9.862;2024-03-08T00:04:06;102511.22;;;1.28;100.00
23241;BME280;11789;53.482;9.862;2024-03-08T00:06:32;102513.06;;;1.31;100.00
23241;BME280;11789;53.482;9.862;2024-03-08T00:08:57;102511.97;;;1.41;100.00
23241;BME280;11789;53.482;9.862;2024-03-08T00:11:23;102509.25;;;1.38;100.00
23241;BME280;11789;53.482;9.862;2024-03-08T00:13:52;102507.59;;;1.38;100.00
23241;BME280;11789;53.482;9.862;2024-03-08T00:16:18;102509.75;;;1.32;100.00
23241;BME280;11789;53.482;9.862;2024-03-08T00:18:45;102501.41;;;1.35;100.00
23241;BME280;11789;53.482;9.862;2024-03-08T00:21:10;102497.00;;;1.32;100.00
23241;BME280;11789;53.482;9.862;2024-03-08T00:23:37;102500.22;;;1.29;100.00
23241;BME280;11789;53.482;9.862;2024-03-08T00:26:03;102494.66;;;1.22;100.00
23241;BME280;11789;53.482;9.862;2024-03-08T00:28:31;102506.31;;;1.18;100.00
23241;BME280;11789;53.482;9.862;2024-03-08T00:30:57;102502.69;;;1.15;100.00
23241;BME280;11789;53.482;9.862;2024-03-08T00:33:22;102501.72;;;1.13;100.00
23241;BME280;11789;53.482;9.862;2024-03-08T00:35:48;102502.31;;;1.09;100.00
23241;BME280;11789;53.482;9.862;2024-03-08T00:38:13;102512.19;;;1.04;100.00
23241;BME280;11789;53.482;9.862;2024-03-08T00:40:39;102505.91;;;0.99;100.00
23241;BME280;11789;53.482;9.862;2024-03-08T00:43:05;102508.47;;;0.99;100.00
23241;BME280;11789;53.482;9.862;2024-03-08T00:45:31;102505.72;;;0.96;100.00
23241;BME280;11789;53.482;9.862;2024-03-08T00:47:57;102506.62;;;0.96;100.00
23241;BME280;11789;53.482;9.862;2024-03-08T00:50:22;102503.78;;;0.92;100.00
23241;BME280;11789;53.482;9.862;2024-03-08T00:52:48;102505.16;;;0.87;100.00
23241;BME280;11789;53.482;9.862;2024-03-08T00:55:13;102503.97;;;0.82;100.00
23241;BME280;11789;53.482;9.862;2024-03-08T00:57:39;102495.31;;;0.80;100.00
23241;BME280;11789;53.482;9.862;2024-03-08T01:00:06;102500.25;;;0.76;100.00
23241;BME280;11789;53.482;9.862;2024-03-08T01:02:35;102498.34;;;0.74;100.00
23241;BME280;11789;53.482;9.862;2024-03-08T01:05:01;102497.47;;;0.73;100.00
23241;BME280;11789;53.482;9.862;2024-03-08T01:07:27;102492.19;;;0.70;100.00
23241;BME280;11789;53.482;9.862;2024-03-08T01:09:52;102489.44;;;0.67;100.00
23241;BME280;11789;53.482;9.862;2024-03-08T01:12:17;102484.25;;;0.66;100.00
23241;BME280;11789;53.482;9.862;2024-03-08T01:14:43;102483.19;;;0.62;100.00
23241;BME280;11789;53.482;9.862;2024-03-08T01:17:08;102477.87;;;0.59;100.00
23241;BME280;11789;53.482;9.862;2024-03-08T01:19:35;102471.81;;;0.57;100.00
23241;BME280;11789;53.482;9.862;2024-03-08T01:22:00;102469.84;;;0.53;100.00
23241;BME280;11789;53.482;9.862;2024-03-08T01:24:26;102468.88;;;0.51;100.00
23241;BME280;11789;53.482;9.862;2024-03-08T01:26:51;102460.25;;;0.49;100.00
23241;BME280;11789;53.482;9.862;2024-03-08T01:29:17;102463.47;;;0.46;100.00
23241;BME280;11789;53.482;9.862;2024-03-08T01:31:42;102457.50;;;0.46;100.00
23241;BME280;11789;53.482;9.862;2024-03-08T01:34:08;102452.31;;;0.44;100.00
23241;BME280;11789;53.482;9.862;2024-03-08T01:36:33;102458.09;;;0.42;100.00
23241;BME280;11789;53.482;9.862;2024-03-08T01:38:59;102450.47;;;0.42;100.00
23241;BME280;11789;53.482;9.862;2024-03-08T01:41:24;102438.97;;;0.35;100.00
23241;BME280;11789;53.482;9.862;2024-03-08T01:43:50;102444.06;;;0.35;100.00
23241;BME280;11789;53.482;9.862;2024-03-08T01:46:19;102435.47;;;0.33;100.00
23241;BME280;11789;53.482;9.862;2024-03-08T01:48:47;102433.78;;;0.34;100.00
23241;BME280;11789;53.482;9.862;2024-03-08T01:51:14;102426.94;;;0.33;100.00
23241;BME280;11789;53.482;9.862;2024-03-08T01:53:40;102430.28;;;0.32;100.00
23241;BME280;11789;53.482;9.862;2024-03-08T01:56:08;102427.53;;;0.29;100.00
23241;BME280;11789;53.482;9.862;2024-03-08T01:58:34;102424.00;;;0.27;100.00
23241;BME280;11789;53.482;9.862;2024-03-08T02:01:01;102416.37;;;0.27;100.00
23241;BME280;11789;53.482;9.862;2024-03-08T02:03:28;102411.88;;;0.22;100.00
23241;BME280;11789;53.482;9.862;2024-03-08T02:05:56;102414.41;;;0.22;100.00
23241;BME280;11789;53.482;9.862;2024-03-08T02:08:21;102415.97;;;0.20;100.00
23241;BME280;11789;53.482;9.862;2024-03-08T02:10:47;102407.25;;;0.17;100.00
23241;BME280;11789;53.482;9.862;2024-03-08T02:13:14;102408.03;;;0.16;100.00
23241;BME280;11789;53.482;9.862;2024-03-08T02:15:59;102414.69;;;0.14;100.00
23241;BME280;11789;53.482;9.862;2024-03-08T02:18:25;102400.00;;;0.10;100.00
23241;BME280;11789;53.482;9.862;2024-03-08T02:20:52;102409.09;;;0.06;100.00
23241;BME280;11789;53.482;9.862;2024-03-08T02:23:21;102405.47;;;0.03;100.00
23241;BME280;11789;53.482;9.862;2024-03-08T02:25:48;102403.47;;;-0.02;100.00
23241;BME280;11789;53.482;9.862;2024-03-08T02:28:14;102402.38;;;-0.05;100.00
23241;BME280;11789;53.482;9.862;2024-03-08T02:30:40;102391.34;;;-0.06;100.00
23241;BME280;11789;53.482;9.862;2024-03-08T02:33:06;102403.97;;;-0.07;100.00
23241;BME280;11789;53.482;9.862;2024-03-08T02:35:33;102392.69;;;-0.11;100.00
23241;BME280;11789;53.482;9.862;2024-03-08T02:37:59;102397.78;;;-0.11;100.00
23241;BME280;11789;53.482;9.862;2024-03-08T02:40:25;102390.84;;;-0.13;100.00
23241;BME280;11789;53.482;9.862;2024-03-08T02:42:50;102392.50;;;-0.14;100.00
23241;BME280;11789;53.482;9.862;2024-03-08T02:45:15;102388.09;;;-0.16;100.00
23241;BME280;11789;53.482;9.862;2024-03-08T02:47:41;102393.97;;;-0.17;100.00
23241;BME280;11789;53.482;9.862;2024-03-08T02:50:06;102392.97;;;-0.19;100.00
23241;BME280;11789;53.482;9.862;2024-03-08T02:52:35;102388.66;;;-0.20;100.00
23241;BME280;11789;53.482;9.862;2024-03-08T02:55:01;102386.13;;;-0.20;100.00
23241;BME280;11789;53.482;9.862;2024-03-08T02:57:27;102383.47;;;-0.22;100.00
23241;BME280;11789;53.482;9.862;2024-03-08T02:59:53;102377.44;;;-0.24;100.00
23241;BME280;11789;53.482;9.862;2024-03-08T03:02:19;102368.78;;;-0.26;100.00
23241;BME280;11789;53.482;9.862;2024-03-08T03:04:44;102373.22;;;-0.23;100.00
23241;BME280;11789;53.482;9.862;2024-03-08T03:07:09;102378.31;;;-0.23;100.00
23241;BME280;11789;53.482;9.862;2024-03-08T03:09:36;102373.22;;;-0.23;100.00
23241;BME280;11789;53.482;9.862;2024-03-08T03:12:02;102375.19;;;-0.19;100.00
23241;BME280;11789;53.482;9.862;2024-03-08T03:14:27;102372.19;;;-0.14;100.00
23241;BME280;11789;53.482;9.862;2024-03-08T03:16:53;102368.75;;;-0.14;100.00
23241;BME280;11789;53.482;9.862;2024-03-08T03:19:20;102376.06;;;-0.19;100.00
23241;BME280;11789;53.482;9.862;2024-03-08T03:21:45;102369.31;;;-0.18;100.00
23241;BME280;11789;53.482;9.862;2024-03-08T03:24:11;102371.66;;;-0.21;100.00
23241;BME280;11789;53.482;9.862;2024-03-08T03:26:38;102372.22;;;-0.26;100.00
23241;BME280;11789;53.482;9.862;2024-03-08T03:29:07;102373.88;;;-0.26;100.00
23241;BME280;11789;53.482;9.862;2024-03-08T03:31:34;102373.69;;;-0.29;100.00
23241;BME280;11789;53.482;9.862;2024-03-08T03:34:01;102369.50;;;-0.29;100.00
23241;BME280;11789;53.482;9.862;2024-03-08T03:36:30;102374.00;;;-0.24;100.00
23241;BME280;11789;53.482;9.862;2024-03-08T03:38:56;102365.50;;;-0.25;100.00
23241;BME280;11789;53.482;9.862;2024-03-08T03:41:31;102367.12;;;-0.26;100.00
23241;BME280;11789;53.482;9.862;2024-03-08T03:43:56;102360.81;;;-0.19;100.00
23241;BME280;11789;53.482;9.862;2024-03-08T03:46:21;102359.97;;;-0.06;100.00
23241;BME280;11789;53.482;9.862;2024-03-08T03:48:47;102360.19;;;-0.03;100.00
23241;BME280;11789;53.482;9.862;2024-03-08T03:51:12;102358.78;;;-0.11;100.00
23241;BME280;11789;53.482;9.862;2024-03-08T03:53:40;102360.81;;;-0.19;100.00
23241;BME280;11789;53.482;9.862;2024-03-08T03:56:06;102365.78;;;-0.20;100.00
23241;BME280;11789;53.482;9.862;2024-03-08T03:58:32;102368.50;;;-0.31;100.00
23241;BME280;11789;53.482;9.862;2024-03-08T04:00:58;102361.66;;;-0.32;100.00
23241;BME280;11789;53.482;9.862;2024-03-08T04:03:23;102361.03;;;-0.41;100.00
23241;BME280;11789;53.482;9.862;2024-03-08T04:05:49;102361.72;;;-0.43;100.00
23241;BME280;11789;53.482;9.862;2024-03-08T04:08:14;102367.56;;;-0.44;100.00
23241;BME280;11789;53.482;9.862;2024-03-08T04:10:40;102368.13;;;-0.48;100.00
23241;BME280;11789;53.482;9.862;2024-03-08T04:13:08;102360.22;;;-0.53;100.00
23241;BME280;11789;53.482;9.862;2024-03-08T04:15:35;102364.31;;;-0.55;100.00
23241;BME280;11789;53.482;9.862;2024-03-08T04:18:00;102357.44;;;-0.56;100.00
23241;BME280;11789;53.482;9.862;2024-03-08T04:20:27;102359.31;;;-0.54;100.00
23241;BME280;11789;53.482;9.862;2024-03-08T04:22:52;102350.28;;;-0.62;100.00
23241;BME280;11789;53.482;9.862;2024-03-08T04:25:18;102350.97;;;-0.64;100.00
23241;BME280;11789;53.482;9.862;2024-03-08T04:27:43;102338.94;;;-0.67;100.00
23241;BME280;11789;53.482;9.862;2024-03-08T04:30:10;102343.13;;;-0.67;100.00
23241;BME280;11789;53.482;9.862;2024-03-08T04:32:35;102341.06;;;-0.73;100.00
23241;BME280;11789;53.482;9.862;2024-03-08T04:35:01;102347.72;;;-0.75;100.00
23241;BME280;11789;53.482;9.862;2024-03-08T04:37:27;102345.03;;;-0.76;100.00
23241;BME280;11789;53.482;9.862;2024-03-08T04:39:55;102342.41;;;-0.78;100.00
23241;BME280;11789;53.482;9.862;2024-03-08T04:42:20;102338.13;;;-0.79;100.00
23241;BME280;11789;53.482;9.862;2024-03-08T04:44:46;102346.59;;;-0.79;100.00
23241;BME280;11789;53.482;9.862;2024-03-08T04:47:12;102343.09;;;-0.81;100.00
23241;BME280;11789;53.482;9.862;2024-03-08T04:49:37;102339.00;;;-0.79;100.00
23241;BME280;11789;53.482;9.862;2024-03-08T04:52:03;102335.47;;;-0.81;100.00
23241;BME280;11789;53.482;9.862;2024-03-08T04:54:30;102332.81;;;-0.82;100.00
23241;BME280;11789;53.482;9.862;2024-03-08T04:56:55;102329.41;;;-0.83;100.00
23241;BME280;11789;53.482;9.862;2024-03-08T04:59:21;102321.69;;;-0.84;100.00
23241;BME280;11789;53.482;9.862;2024-03-08T05:01:47;102330.09;;;-0.85;100.00
23241;BME280;11789;53.482;9.862;2024-03-08T05:04:13;102318.25;;;-0.85;100.00
23241;BME280;11789;53.482;9.862;2024-03-08T05:06:38;102320.81;;;-0.85;100.00
23241;BME280;11789;53.482;9.862;2024-03-08T05:09:04;102321.47;;;-0.87;100.00
23241;BME280;11789;53.482;9.862;2024-03-08T05:11:45;102315.72;;;-0.85;100.00
23241;BME280;11789;53.482;9.862;2024-03-08T05:14:12;102320.59;;;-0.88;100.00
23241;BME280;11789;53.482;9.862;2024-03-08T05:16:46;102315.50;;;-0.88;100.00
23241;BME280;11789;53.482;9.862;2024-03-08T05:19:19;102316.28;;;-0.89;100.00
23241;BME280;11789;53.482;9.862;2024-03-08T05:21:46;102318.81;;;-0.89;100.00
23241;BME280;11789;53.482;9.862;2024-03-08T05:24:12;102319.69;;;-0.88;100.00
23241;BME280;11789;53.482;9.862;2024-03-08T05:26:38;102317.47;;;-0.84;100.00
23241;BME280;11789;53.482;9.862;2024-03-08T05:29:04;102318.91;;;-0.75;100.00
23241;BME280;11789;53.482;9.862;2024-03-08T05:31:33;102315.19;;;-0.67;100.00
23241;BME280;11789;53.482;9.862;2024-03-08T05:34:01;102315.59;;;-0.61;100.00
23241;BME280;11789;53.482;9.862;2024-03-08T05:36:26;102318.28;;;-0.60;100.00
23241;BME280;11789;53.482;9.862;2024-03-08T05:38:52;102311.31;;;-0.62;100.00
23241;BME280;11789;53.482;9.862;2024-03-08T05:41:17;102312.34;;;-0.72;100.00
23241;BME280;11789;53.482;9.862;2024-03-08T05:43:43;102306.16;;;-0.64;100.00
23241;BME280;11789;53.482;9.862;2024-03-08T05:46:09;102308.59;;;-0.65;100.00
23241;BME280;11789;53.482;9.862;2024-03-08T05:48:36;102304.25;;;-0.66;100.00
23241;BME280;11789;53.482;9.862;2024-03-08T05:51:03;102310.91;;;-0.68;100.00
23241;BME280;11789;53.482;9.862;2024-03-08T05:53:28;102313.44;;;-0.68;100.00
23241;BME280;11789;53.482;9.862;2024-03-08T05:55:58;102318.31;;;-0.71;100.00
23241;BME280;11789;53.482;9.862;2024-03-08T05:58:24;102324.38;;;-0.69;100.00
23241;BME280;11789;53.482;9.862;2024-03-08T06:00:49;102324.00;;;-0.62;100.00
23241;BME280;11789;53.482;9.862;2024-03-08T06:03:15;102321.22;;;-0.54;100.00
23241;BME280;11789;53.482;9.862;2024-03-08T06:05:40;102318.78;;;-0.52;100.00
23241;BME280;11789;53.482;9.862;2024-03-08T06:08:07;102318.37;;;-0.58;100.00
23241;BME280;11789;53.482;9.862;2024-03-08T06:10:33;102317.41;;;-0.60;100.00
23241;BME280;11789;53.482;9.862;2024-03-08T06:12:59;102316.53;;;-0.61;100.00
23241;BME280;11789;53.482;9.862;2024-03-08T06:15:25;102316.22;;;-0.65;100.00
23241;BME280;11789;53.482;9.862;2024-03-08T06:17:50;102312.56;;;-0.69;100.00
23241;BME280;11789;53.482;9.862;2024-03-08T06:20:18;102316.00;;;-0.68;100.00
23241;BME280;11789;53.482;9.862;2024-03-08T06:22:43;102313.44;;;-0.68;100.00
23241;BME280;11789;53.482;9.862;2024-03-08T06:25:11;102309.81;;;-0.72;100.00
23241;BME280;11789;53.482;9.862;2024-03-08T06:27:42;102308.16;;;-0.71;100.00
23241;BME280;11789;53.482;9.862;2024-03-08T06:30:09;102312.41;;;-0.59;100.00
23241;BME280;11789;53.482;9.862;2024-03-08T06:32:38;102302.56;;;-0.54;100.00
23241;BME280;11789;53.482;9.862;2024-03-08T06:35:05;102301.00;;;-0.52;100.00
23241;BME280;11789;53.482;9.862;2024-03-08T06:37:34;102306.69;;;-0.43;100.00
23241;BME280;11789;53.482;9.862;2024-03-08T06:40:00;102311.53;;;-0.34;100.00
23241;BME280;11789;53.482;9.862;2024-03-08T06:42:29;102302.03;;;-0.37;100.00
23241;BME280;11789;53.482;9.862;2024-03-08T06:44:59;102296.84;;;-0.38;100.00
23241;BME280;11789;53.482;9.862;2024-03-08T06:47:29;102299.12;;;-0.30;100.00
23241;BME280;11789;53.482;9.862;2024-03-08T06:49:55;102298.03;;;-0.33;100.00
23241;BME280;11789;53.482;9.862;2024-03-08T06:52:20;102291.06;;;-0.36;100.00
23241;BME280;11789;53.482;9.862;2024-03-08T06:54:47;102298.72;;;-0.22;100.00
23241;BME280;11789;53.482;9.862;2024-03-08T06:57:13;102288.59;;;-0.09;100.00
23241;BME280;11789;53.482;9.862;2024-03-08T06:59:39;102294.75;;;-0.06;100.00
23241;BME280;11789;53.482;9.862;2024-03-08T07:02:04;102289.56;;;-0.07;100.00
23241;BME280;11789;53.482;9.862;2024-03-08T07:04:30;102288.13;;;-0.04;100.00
23241;BME280;11789;53.482;9.862;2024-03-08T07:06:56;102293.81;;;0.06;100.00
23241;BME280;11789;53.482;9.862;2024-03-08T07:09:23;102286.47;;;0.23;100.00
23241;BME280;11789;53.482;9.862;2024-03-08T07:11:50;102281.00;;;0.31;100.00
23241;BME280;11789;53.482;9.862;2024-03-08T07:14:22;102288.13;;;0.36;100.00
23241;BME280;11789;53.482;9.862;2024-03-08T07:16:49;102281.84;;;0.44;100.00
23241;BME280;11789;53.482;9.862;2024-03-08T07:19:14;102286.34;;;0.48;100.00
23241;BME280;11789;53.482;9.862;2024-03-08T07:21:41;102280.97;;;0.57;100.00
23241;BME280;11789;53.482;9.862;2024-03-08T07:24:07;102286.94;;;0.58;100.00
23241;BME280;11789;53.482;9.862;2024-03-08T07:26:42;102291.22;;;0.59;100.00
23241;BME280;11789;53.482;9.862;2024-03-08T07:29:08;102292.25;;;0.75;100.00
23241;BME280;11789;53.482;9.862;2024-03-08T07:31:34;102291.97;;;0.84;100.00
23241;BME280;11789;53.482;9.862;2024-03-08T07:34:19;102292.62;;;0.95;100.00
23241;BME280;11789;53.482;9.862;2024-03-08T07:36:46;102300.81;;;1.04;100.00
23241;BME280;11789;53.482;9.862;2024-03-08T07:39:11;102295.25;;;1.24;100.00
23241;BME280;11789;53.482;9.862;2024-03-08T07:41:38;102283.91;;;1.47;100.00
23241;BME280;11789;53.482;9.862;2024-03-08T07:44:08;102283.22;;;1.79;100.00
23241;BME280;11789;53.482;9.862;2024-03-08T07:46:34;102272.94;;;1.93;100.00
23241;BME280;11789;53.482;9.862;2024-03-08T07:49:00;102279.16;;;1.98;100.00
23241;BME280;11789;53.482;9.862;2024-03-08T07:51:25;102283.81;;;1.90;100.00
23241;BME280;11789;53.482;9.862;2024-03-08T07:53:51;102280.13;;;2.00;100.00
23241;BME280;11789;53.482;9.862;2024-03-08T07:56:17;102278.25;;;2.12;100.00
23241;BME280;11789;53.482;9.862;2024-03-08T07:58:44;102285.00;;;2.26;100.00
23241;BME280;11789;53.482;9.862;2024-03-08T08:01:19;102283.16;;;2.39;100.00
23241;BME280;11789;53.482;9.862;2024-03-08T08:03:45;102286.19;;;2.48;100.00
23241;BME280;11789;53.482;9.862;2024-03-08T08:06:11;102280.28;;;2.64;100.00
23241;BME280;11789;53.482;9.862;2024-03-08T08:08:44;102284.31;;;2.60;100.00
23241;BME280;11789;53.482;9.862;2024-03-08T08:11:10;102271.63;;;2.62;100.00
23241;BME280;11789;53.482;9.862;2024-03-08T08:13:36;102279.22;;;2.60;100.00
23241;BME280;11789;53.482;9.862;2024-03-08T08:16:03;102271.88;;;2.66;100.00
23241;BME280;11789;53.482;9.862;2024-03-08T08:18:29;102267.91;;;2.71;98.86
23241;BME280;11789;53.482;9.862;2024-03-08T08:20:55;102272.62;;;2.80;97.96
23241;BME280;11789;53.482;9.862;2024-03-08T08:23:21;102257.94;;;2.76;97.61
23241;BME280;11789;53.482;9.862;2024-03-08T08:25:47;102267.59;;;2.81;97.48
23241;BME280;11789;53.482;9.862;2024-03-08T08:28:16;102268.53;;;2.83;97.20
23241;BME280;11789;53.482;9.862;2024-03-08T08:30:43;102260.31;;;3.38;95.65
23241;BME280;11789;53.482;9.862;2024-03-08T08:33:09;102261.72;;;4.55;89.60
23241;BME280;11789;53.482;9.862;2024-03-08T08:35:36;102255.97;;;4.78;84.87
23241;BME280;11789;53.482;9.862;2024-03-08T08:38:06;102260.50;;;4.47;86.04
23241;BME280;11789;53.482;9.862;2024-03-08T08:40:35;102264.00;;;5.05;83.49
23241;BME280;11789;53.482;9.862;2024-03-08T08:43:02;102255.78;;;5.12;82.12
23241;BME280;11789;53.482;9.862;2024-03-08T08:45:32;102250.34;;;3.95;85.82
23241;BME280;11789;53.482;9.862;2024-03-08T08:47:58;102250.37;;;4.50;86.44
23241;BME280;11789;53.482;9.862;2024-03-08T08:50:27;102253.91;;;4.52;83.63
23241;BME280;11789;53.482;9.862;2024-03-08T08:52:54;102236.66;;;5.25;80.87
23241;BME280;11789;53.482;9.862;2024-03-08T08:55:19;102243.53;;;6.29;77.14
23241;BME280;11789;53.482;9.862;2024-03-08T08:57:51;102230.09;;;6.81;71.67
23241;BME280;11789;53.482;9.862;2024-03-08T09:00:18;102229.94;;;6.09;73.24
23241;BME280;11789;53.482;9.862;2024-03-08T09:02:45;102237.72;;;5.50;77.01
23241;BME280;11789;53.482;9.862;2024-03-08T09:05:10;102228.16;;;5.26;77.88
23241;BME280;11789;53.482;9.862;2024-03-08T09:07:42;102232.53;;;5.08;79.05
23241;BME280;11789;53.482;9.862;2024-03-08T09:10:09;102229.31;;;4.75;80.02
23241;BME280;11789;53.482;9.862;2024-03-08T09:12:37;102230.78;;;4.50;82.34
23241;BME280;11789;53.482;9.862;2024-03-08T09:15:05;102223.25;;;4.35;83.43
23241;BME280;11789;53.482;9.862;2024-03-08T09:17:33;102222.25;;;4.32;83.73
23241;BME280;11789;53.482;9.862;2024-03-08T09:19:59;102221.66;;;4.37;84.05
23241;BME280;11789;53.482;9.862;2024-03-08T09:22:24;102216.06;;;4.27;84.13
23241;BME280;11789;53.482;9.862;2024-03-08T09:24:50;102225.31;;;4.42;84.71
23241;BME280;11789;53.482;9.862;2024-03-08T09:27:16;102217.75;;;4.46;83.06
23241;BME280;11789;53.482;9.862;2024-03-08T09:29:41;102206.97;;;4.33;82.21
23241;BME280;11789;53.482;9.862;2024-03-08T09:32:07;102202.22;;;4.41;82.17
23241;BME280;11789;53.482;9.862;2024-03-08T09:34:32;102207.41;;;4.42;82.11
23241;BME280;11789;53.482;9.862;2024-03-08T09:36:58;102190.56;;;4.48;82.69
23241;BME280;11789;53.482;9.862;2024-03-08T09:39:23;102186.59;;;4.74;82.20
23241;BME280;11789;53.482;9.862;2024-03-08T09:41:49;102195.50;;;4.82;80.74
23241;BME280;11789;53.482;9.862;2024-03-08T09:44:15;102179.22;;;4.81;80.07
23241;BME280;11789;53.482;9.862;2024-03-08T09:46:42;102174.44;;;4.89;80.27
23241;BME280;11789;53.482;9.862;2024-03-08T09:49:08;102172.06;;;5.13;79.82
23241;BME280;11789;53.482;9.862;2024-03-08T09:51:34;102169.34;;;5.29;78.61
23241;BME280;11789;53.482;9.862;2024-03-08T09:54:02;102163.44;;;5.32;78.28
23241;BME280;11789;53.482;9.862;2024-03-08T09:56:32;102165.44;;;5.18;77.38
23241;BME280;11789;53.482;9.862;2024-03-08T09:58:59;102166.41;;;5.01;77.96
23241;BME280;11789;53.482;9.862;2024-03-08T10:01:50;102153.59;;;4.81;78.35
23241;BME280;11789;53.482;9.862;2024-03-08T10:04:17;102155.44;;;4.84;78.84
23241;BME280;11789;53.482;9.862;2024-03-08T10:06:43;102151.69;;;4.97;77.78
23241;BME280;11789;53.482;9.862;2024-03-08T10:09:09;102154.81;;;4.89;77.46
23241;BME280;11789;53.482;9.862;2024-03-08T10:11:35;102154.09;;;4.92;77.72
23241;BME280;11789;53.482;9.862;2024-03-08T10:14:01;102140.28;;;4.88;77.69
23241;BME280;11789;53.482;9.862;2024-03-08T10:16:30;102143.09;;;4.94;78.63
23241;BME280;11789;53.482;9.862;2024-03-08T10:18:59;102140.16;;;5.06;78.51
23241;BME280;11789;53.482;9.862;2024-03-08T10:21:25;102131.69;;;5.07;76.64
23241;BME280;11789;53.482;9.862;2024-03-08T10:23:51;102128.72;;;4.98;76.36
23241;BME280;11789;53.482;9.862;2024-03-08T10:26:17;102133.91;;;5.00;76.27
23241;BME280;11789;53.482;9.862;2024-03-08T10:28:45;102121.91;;;4.99;77.15
23241;BME280;11789;53.482;9.862;2024-03-08T10:31:16;102106.16;;;5.10;76.92
23241;BME280;11789;53.482;9.862;2024-03-08T10:33:41;102119.16;;;5.15;76.66
23241;BME280;11789;53.482;9.862;2024-03-08T10:36:08;102114.81;;;5.12;75.73
23241;BME280;11789;53.482;9.862;2024-03-08T10:38:41;102101.59;;;5.03;75.29
23241;BME280;11789;53.482;9.862;2024-03-08T10:41:10;102095.22;;;5.14;75.68
23241;BME280;11789;53.482;9.862;2024-03-08T10:49:08;102096.09;;;5.15;72.76
23241;BME280;11789;53.482;9.862;2024-03-08T10:51:38;102086.75;;;4.96;73.54
23241;BME280;11789;53.482;9.862;2024-03-08T10:54:08;102088.53;;;4.97;73.65
23241;BME280;11789;53.482;9.862;2024-03-08T10:56:35;102084.16;;;4.94;74.55
23241;BME280;11789;53.482;9.862;2024-03-08T10:59:01;102079.41;;;5.04;74.61
23241;BME280;11789;53.482;9.862;2024-03-08T11:01:29;102072.00;;;5.11;74.85
23241;BME280;11789;53.482;9.862;2024-03-08T11:03:55;102069.91;;;5.22;75.18
23241;BME280;11789;53.482;9.862;2024-03-08T11:06:43;102073.87;;;5.36;76.22
23241;BME280;11789;53.482;9.862;2024-03-08T11:09:36;102067.84;;;5.57;74.64
23241;BME280;11789;53.482;9.862;2024-03-08T11:14:49;102067.75;;;5.54;69.74
23241;BME280;11789;53.482;9.862;2024-03-08T11:17:26;102047.28;;;5.55;70.15
23241;BME280;11789;53.482;9.862;2024-03-08T11:20:09;102046.03;;;5.45;68.66
23241;BME280;11789;53.482;9.862;2024-03-08T11:22:51;102041.22;;;5.53;68.48
23241;BME280;11789;53.482;9.862;2024-03-08T11:28:10;102044.38;;;5.68;68.76
23241;BME280;11789;53.482;9.862;2024-03-08T11:30:47;102036.38;;;5.83;69.10
23241;BME280;11789;53.482;9.862;2024-03-08T11:33:30;102044.50;;;5.94;67.18
23241;BME280;11789;53.482;9.862;2024-03-08T11:36:23;102041.94;;;5.94;67.11
23241;BME280;11789;53.482;9.862;2024-03-08T11:38:53;102035.66;;;5.87;66.98
23241;BME280;11789;53.482;9.862;2024-03-08T11:41:21;102028.91;;;5.89;66.79
23241;BME280;11789;53.482;9.862;2024-03-08T11:43:47;102024.41;;;5.84;65.86
23241;BME280;11789;53.482;9.862;2024-03-08T11:46:14;102016.56;;;5.79;66.50
23241;BME280;11789;53.482;9.862;2024-03-08T11:48:40;102017.13;;;5.72;67.29
23241;BME280;11789;53.482;9.862;2024-03-08T11:51:08;102008.69;;;5.75;68.40
23241;BME280;11789;53.482;9.862;2024-03-08T11:53:34;102018.00;;;5.72;68.13
23241;BME280;11789;53.482;9.862;2024-03-08T11:58:31;102016.72;;;5.61;69.87
23241;BME280;11789;53.482;9.862;2024-03-08T12:01:04;102005.72;;;5.64;70.37
23241;BME280;11789;53.482;9.862;2024-03-08T12:03:31;101996.91;;;5.80;69.94
23241;BME280;11789;53.482;9.862;2024-03-08T12:06:00;101998.94;;;5.88;69.96
23241;BME280;11789;53.482;9.862;2024-03-08T12:08:25;101990.13;;;5.82;69.89
23241;BME280;11789;53.482;9.862;2024-03-08T12:10:54;102008.78;;;5.78;69.33
23241;BME280;11789;53.482;9.862;2024-03-08T12:13:26;101999.87;;;5.68;69.62
23241;BME280;11789;53.482;9.862;2024-03-08T12:15:58;101991.47;;;5.72;69.11
23241;BME280;11789;53.482;9.862;2024-03-08T12:18:27;101981.53;;;5.81;69.49
23241;BME280;11789;53.482;9.862;2024-03-08T12:21:12;101981.22;;;5.94;69.08
23241;BME280;11789;53.482;9.862;2024-03-08T12:23:47;101975.44;;;6.00;67.98
23241;BME280;11789;53.482;9.862;2024-03-08T12:26:18;101970.13;;;5.95;68.04
23241;BME280;11789;53.482;9.862;2024-03-08T12:28:45;101969.78;;;6.10;67.44
23241;BME280;11789;53.482;9.862;2024-03-08T12:31:17;101969.91;;;6.13;68.08
23241;BME280;11789;53.482;9.862;2024-03-08T12:33:53;101952.03;;;6.16;67.34
23241;BME280;11789;53.482;9.862;2024-03-08T12:36:20;101942.72;;;6.18;67.18
23241;BME280;11789;53.482;9.862;2024-03-08T12:38:46;101944.53;;;6.22;66.78
23241;BME280;11789;53.482;9.862;2024-03-08T12:41:16;101935.37;;;6.29;65.99
23241;BME280;11789;53.482;9.862;2024-03-08T12:43:43;101925.09;;;6.29;65.68
23241;BME280;11789;53.482;9.862;2024-03-08T12:46:15;101934.06;;;6.42;64.96
23241;BME280;11789;53.482;9.862;2024-03-08T12:48:41;101930.81;;;6.47;64.41
23241;BME280;11789;53.482;9.862;2024-03-08T12:51:09;101917.06;;;6.45;62.00
23241;BME280;11789;53.482;9.862;2024-03-08T12:53:35;101910.28;;;6.47;61.73
23241;BME280;11789;53.482;9.862;2024-03-08T12:56:00;101909.03;;;6.62;61.84
23241;BME280;11789;53.482;9.862;2024-03-08T12:58:26;101892.88;;;6.66;62.69
23241;BME280;11789;53.482;9.862;2024-03-08T13:00:52;101907.59;;;6.70;62.25
23241;BME280;11789;53.482;9.862;2024-03-08T13:03:17;101891.16;;;6.65;63.16
23241;BME280;11789;53.482;9.862;2024-03-08T13:05:43;101885.94;;;6.63;62.98